createdAt,value
2023-05-19T00:02:24.113Z,97028.63
2023-05-19T00:04:50.993Z,97026.78
2023-05-19T00:07:18.321Z,97027.69
2023-05-19T00:09:45.049Z,97024.53
2023-05-19T00:12:12.500Z,97028.25
2023-05-19T00:14:39.375Z,97029.47
2023-05-19T00:19:50.574Z,97025.94
2023-05-19T00:22:17.254Z,97025.81
2023-05-19T00:24:44.039Z,97017.69
2023-05-19T00:27:10.737Z,97013.63
2023-05-19T00:29:37.423Z,97010.91
2023-05-19T00:32:04.270Z,97017.25
2023-05-19T00:34:30.980Z,97009.06
2023-05-19T00:36:57.647Z,97007.63
2023-05-19T00:39:24.329Z,97010.69
2023-05-19T00:41:50.972Z,97010.47
2023-05-19T00:44:17.597Z,97005.91
2023-05-19T00:46:44.287Z,97009.88
2023-05-19T00:49:10.973Z,97008.34
2023-05-19T00:51:37.599Z,97008.47
2023-05-19T00:54:04.495Z,97002.00
2023-05-19T00:56:31.319Z,97006.13
2023-05-19T00:58:57.993Z,97009.75
2023-05-19T01:01:24.723Z,97004.34
2023-05-19T01:03:51.551Z,97009.50
2023-05-19T01:06:18.284Z,97003.03
2023-05-19T01:08:44.913Z,97001.53
2023-05-19T01:11:11.586Z,97002.22
2023-05-19T01:13:40.340Z,97001.56
2023-05-19T01:16:11.180Z,97001.47
2023-05-19T01:18:37.750Z,96999.50
2023-05-19T01:21:31.645Z,96997.25
2023-05-19T01:24:07.374Z,96999.50
2023-05-19T01:26:58.846Z,97004.25
2023-05-19T01:29:48.058Z,96998.44
2023-05-19T01:32:14.802Z,97008.03
2023-05-19T01:34:43.179Z,97003.91
2023-05-19T01:37:09.902Z,97010.81
2023-05-19T01:39:36.568Z,97008.19
2023-05-19T01:42:03.283Z,97014.94
2023-05-19T01:44:29.913Z,97008.72
2023-05-19T01:46:56.603Z,97014.41
2023-05-19T01:49:23.299Z,97011.50
2023-05-19T01:51:50.040Z,97006.78
2023-05-19T01:54:16.723Z,97004.56
2023-05-19T01:57:00.746Z,97001.28
2023-05-19T01:59:48.601Z,96998.78
2023-05-19T02:02:44.017Z,97003.28
2023-05-19T02:05:15.151Z,97004.41
2023-05-19T02:07:50.423Z,97006.72
2023-05-19T02:10:23.756Z,97005.94
2023-05-19T02:12:50.681Z,96999.38
2023-05-19T02:15:17.982Z,97003.72
2023-05-19T02:17:45.336Z,97000.22
2023-05-19T02:20:12.103Z,96996.78
2023-05-19T02:22:38.902Z,96994.09
2023-05-19T02:25:05.792Z,97000.22
2023-05-19T02:27:32.593Z,96998.34
2023-05-19T02:29:59.274Z,97000.91
2023-05-19T02:32:26.095Z,97003.72
2023-05-19T02:34:52.800Z,97000.31
2023-05-19T02:37:19.431Z,96998.75
2023-05-19T02:39:46.049Z,97005.78
2023-05-19T02:42:12.724Z,97004.72
2023-05-19T02:44:39.368Z,97001.19
2023-05-19T02:47:05.989Z,96999.56
2023-05-19T02:49:32.628Z,97002.72
2023-05-19T02:51:59.256Z,96999.00
2023-05-19T02:54:25.926Z,97003.63
2023-05-19T02:56:52.569Z,96995.09
2023-05-19T02:59:19.198Z,96989.25
2023-05-19T03:01:45.893Z,96989.25
2023-05-19T03:04:12.602Z,96989.69
2023-05-19T03:06:39.473Z,96981.41
2023-05-19T03:09:06.161Z,96988.44
2023-05-19T03:11:32.849Z,96990.56
2023-05-19T03:13:59.537Z,96987.09
2023-05-19T03:16:26.257Z,96982.75
2023-05-19T03:18:52.967Z,96986.69
2023-05-19T03:21:19.636Z,96979.56
2023-05-19T03:23:46.332Z,96974.91
2023-05-19T03:26:12.977Z,96977.59
2023-05-19T03:28:39.626Z,96970.41
2023-05-19T03:31:06.369Z,96972.41
2023-05-19T03:33:33.110Z,96976.53
2023-05-19T03:35:59.851Z,96975.34
2023-05-19T03:38:26.533Z,96970.78
2023-05-19T03:40:53.165Z,96966.56
2023-05-19T03:43:19.804Z,96972.56
2023-05-19T03:45:46.494Z,96969.69
2023-05-19T03:48:13.206Z,96980.59
2023-05-19T03:50:39.916Z,96981.84
2023-05-19T03:53:06.598Z,96983.63
2023-05-19T03:55:33.237Z,96983.56
2023-05-19T03:57:59.858Z,96995.69
2023-05-19T04:00:26.662Z,96994.03
2023-05-19T04:02:53.439Z,96991.81
2023-05-19T04:05:20.180Z,96988.22
2023-05-19T04:07:46.905Z,96997.91
2023-05-19T04:10:13.633Z,96997.78
2023-05-19T04:12:40.275Z,96996.59
2023-05-19T04:15:07.471Z,97003.63
2023-05-19T04:17:34.186Z,97004.38
2023-05-19T04:20:00.838Z,97004.00
2023-05-19T04:22:27.501Z,97003.78
2023-05-19T04:24:54.167Z,97002.41
2023-05-19T04:27:20.793Z,97004.03
2023-05-19T04:29:47.459Z,97004.38
2023-05-19T04:32:14.219Z,97005.69
2023-05-19T04:34:40.907Z,97003.50
2023-05-19T04:37:07.699Z,97005.00
2023-05-19T04:39:34.414Z,97007.00
2023-05-19T04:42:01.154Z,97004.78
2023-05-19T04:44:27.849Z,97009.63
2023-05-19T04:46:54.686Z,97008.19
2023-05-19T04:49:21.479Z,97016.41
2023-05-19T04:51:48.161Z,97010.00
2023-05-19T04:54:14.792Z,97010.47
2023-05-19T04:56:41.432Z,97009.44
2023-05-19T04:59:08.110Z,97003.81
2023-05-19T05:01:34.809Z,97010.84
2023-05-19T05:04:01.479Z,97007.03
2023-05-19T05:06:28.179Z,97007.38
2023-05-19T05:08:54.807Z,97009.94
2023-05-19T05:11:21.658Z,97015.28
2023-05-19T05:13:48.622Z,97017.84
2023-05-19T05:16:15.755Z,97012.81
2023-05-19T05:18:44.900Z,97004.06
2023-05-19T05:21:12.196Z,97006.38
2023-05-19T05:23:39.119Z,96999.88
2023-05-19T05:26:10.657Z,97000.34
2023-05-19T05:28:37.344Z,97005.66
2023-05-19T05:31:04.031Z,97003.16
2023-05-19T05:33:30.734Z,97002.56
2023-05-19T05:35:57.483Z,97002.81
2023-05-19T05:38:24.287Z,97003.97
2023-05-19T05:40:51.036Z,96999.78
2023-05-19T05:43:17.681Z,97000.81
2023-05-19T05:45:44.412Z,96997.78
2023-05-19T05:48:11.332Z,97004.91
2023-05-19T05:50:38.398Z,96993.19
2023-05-19T05:53:05.552Z,97000.09
2023-05-19T05:55:32.552Z,96997.84
2023-05-19T05:57:59.410Z,97001.66
2023-05-19T06:00:26.054Z,97003.78
2023-05-19T06:02:52.880Z,97003.06
2023-05-19T06:05:19.671Z,97001.22
2023-05-19T06:07:46.381Z,97004.78
2023-05-19T06:10:13.082Z,96996.31
2023-05-19T06:12:39.733Z,97000.84
2023-05-19T06:15:07.220Z,96996.44
2023-05-19T06:17:34.163Z,96993.22
2023-05-19T06:20:00.809Z,96994.53
2023-05-19T06:22:27.429Z,96995.56
2023-05-19T06:24:54.284Z,96991.53
2023-05-19T06:27:20.970Z,96990.25
2023-05-19T06:29:47.648Z,96996.56
2023-05-19T06:32:15.045Z,96995.38
2023-05-19T06:34:41.737Z,96986.31
2023-05-19T06:37:08.408Z,96984.91
2023-05-19T06:39:35.116Z,96990.41
2023-05-19T06:42:01.767Z,96989.13
2023-05-19T06:44:28.422Z,96997.06
2023-05-19T06:46:55.148Z,96994.75
2023-05-19T06:49:21.873Z,96995.00
2023-05-19T06:51:48.705Z,96995.59
2023-05-19T06:54:15.342Z,96984.72
2023-05-19T06:56:42.037Z,96986.44
2023-05-19T06:59:08.684Z,96978.41
2023-05-19T07:01:35.330Z,96985.13
2023-05-19T07:04:02.200Z,96985.50
2023-05-19T07:06:29.442Z,96990.75
2023-05-19T07:08:56.089Z,96991.34
2023-05-19T07:11:23.438Z,96981.19
2023-05-19T07:13:50.127Z,96989.47
2023-05-19T07:16:16.896Z,96990.84
2023-05-19T07:18:43.834Z,96990.84
2023-05-19T07:21:10.518Z,96992.41
2023-05-19T07:23:39.250Z,96992.50
2023-05-19T07:26:05.952Z,96997.66
2023-05-19T07:28:32.593Z,96991.00
2023-05-19T07:30:59.276Z,96989.53
2023-05-19T07:33:26.009Z,96993.13
2023-05-19T07:35:53.264Z,96985.38
2023-05-19T07:38:19.941Z,96986.56
2023-05-19T07:40:46.561Z,96980.75
2023-05-19T07:43:13.234Z,96983.78
2023-05-19T07:45:39.884Z,96981.09
2023-05-19T07:48:06.610Z,96973.44
2023-05-19T07:50:33.369Z,96983.41
2023-05-19T07:53:00.140Z,96974.22
2023-05-19T07:55:26.825Z,96976.47
2023-05-19T07:57:53.585Z,96973.91
2023-05-19T08:00:20.349Z,96971.75
2023-05-19T08:02:47.075Z,96967.72
2023-05-19T08:05:13.810Z,96971.81
2023-05-19T08:07:40.512Z,96977.09
2023-05-19T08:10:07.597Z,96966.63
2023-05-19T08:12:34.283Z,96970.44
2023-05-19T08:15:01.839Z,96972.09
2023-05-19T08:17:28.770Z,96970.38
2023-05-19T08:19:55.471Z,96966.69
2023-05-19T08:22:22.129Z,96969.88
2023-05-19T08:24:48.798Z,96966.41
2023-05-19T08:27:15.967Z,96962.63
2023-05-19T08:29:43.016Z,96964.41
2023-05-19T08:32:11.619Z,96958.19
2023-05-19T08:34:39.901Z,96963.09
2023-05-19T08:37:06.880Z,96956.16
2023-05-19T08:39:33.559Z,96948.41
2023-05-19T08:42:00.504Z,96952.13
2023-05-19T08:44:27.189Z,96943.72
2023-05-19T08:46:54.790Z,96941.53
2023-05-19T08:49:27.758Z,96948.22
2023-05-19T08:52:29.442Z,96934.34
2023-05-19T08:54:59.453Z,96950.69
2023-05-19T08:57:26.586Z,96944.38
2023-05-19T08:59:53.354Z,96944.44
2023-05-19T09:02:20.126Z,96940.28
2023-05-19T09:04:46.890Z,96944.09
2023-05-19T09:07:16.554Z,96938.75
2023-05-19T09:09:43.277Z,96938.03
2023-05-19T09:12:10.758Z,96932.06
2023-05-19T09:14:38.084Z,96937.19
2023-05-19T09:17:04.984Z,96934.19
2023-05-19T09:19:31.855Z,96929.00
2023-05-19T09:21:59.192Z,96923.25
2023-05-19T09:24:26.034Z,96921.00
2023-05-19T09:26:54.819Z,96906.72
2023-05-19T09:29:21.753Z,96908.19
2023-05-19T09:31:48.983Z,96905.06
2023-05-19T09:34:15.700Z,96907.81
2023-05-19T09:36:42.507Z,96905.31
2023-05-19T09:39:16.116Z,96913.06
2023-05-19T09:41:42.799Z,96908.59
2023-05-19T09:44:25.726Z,96910.38
2023-05-19T09:46:53.327Z,96909.25
2023-05-19T09:49:20.726Z,96906.59
2023-05-19T09:51:58.803Z,96900.91
2023-05-19T09:54:25.989Z,96908.59
2023-05-19T09:57:03.323Z,96899.13
2023-05-19T09:59:33.004Z,96902.00
2023-05-19T10:02:00.822Z,96900.53
2023-05-19T10:04:28.276Z,96894.91
2023-05-19T10:06:55.717Z,96895.22
2023-05-19T10:09:26.115Z,96889.84
2023-05-19T10:11:53.086Z,96896.47
2023-05-19T10:14:23.646Z,96899.78
2023-05-19T10:16:54.955Z,96893.84
2023-05-19T10:19:22.775Z,96892.72
2023-05-19T10:21:49.641Z,96891.44
2023-05-19T10:24:16.306Z,96885.72
2023-05-19T10:26:56.937Z,96889.00
2023-05-19T10:29:27.319Z,96892.53
2023-05-19T10:31:54.291Z,96895.53
2023-05-19T10:34:54.438Z,96892.78
2023-05-19T10:37:36.256Z,96892.22
2023-05-19T10:40:07.013Z,96884.03
2023-05-19T10:42:40.946Z,96887.97
2023-05-19T10:45:16.905Z,96883.25
2023-05-19T10:47:44.037Z,96883.31
2023-05-19T10:50:10.819Z,96888.13
2023-05-19T10:52:38.065Z,96889.66
2023-05-19T10:55:07.463Z,96890.19
2023-05-19T10:57:34.212Z,96877.16
2023-05-19T11:00:03.958Z,96874.69
2023-05-19T11:02:50.761Z,96870.94
2023-05-19T11:05:17.526Z,96871.25
2023-05-19T11:07:44.741Z,96876.47
2023-05-19T11:10:11.696Z,96873.13
2023-05-19T11:12:45.433Z,96866.66
2023-05-19T11:15:13.389Z,96871.84
2023-05-19T11:17:40.560Z,96866.38
2023-05-19T11:20:08.586Z,96863.66
2023-05-19T11:22:35.229Z,96863.09
2023-05-19T11:25:01.871Z,96857.44
2023-05-19T11:27:35.353Z,96854.69
2023-05-19T11:30:08.982Z,96860.66
2023-05-19T11:32:36.034Z,96857.63
2023-05-19T11:35:02.810Z,96857.88
2023-05-19T11:37:32.005Z,96858.47
2023-05-19T11:40:00.201Z,96857.94
2023-05-19T11:42:26.860Z,96860.66
2023-05-19T11:44:55.345Z,96849.00
2023-05-19T11:47:21.983Z,96849.00
2023-05-19T11:49:48.614Z,96844.34
2023-05-19T11:52:15.296Z,96841.88
2023-05-19T11:54:41.941Z,96839.94
2023-05-19T11:57:09.288Z,96842.72
2023-05-19T11:59:36.923Z,96844.31
2023-05-19T12:02:12.667Z,96838.56
2023-05-19T12:04:39.547Z,96836.13
2023-05-19T12:07:06.329Z,96832.25
2023-05-19T12:09:32.972Z,96833.34
2023-05-19T12:11:59.806Z,96837.22
2023-05-19T12:14:26.717Z,96829.09
2023-05-19T12:16:53.396Z,96822.53
2023-05-19T12:19:23.227Z,96824.44
2023-05-19T12:21:50.099Z,96824.50
2023-05-19T12:24:16.793Z,96823.91
2023-05-19T12:26:43.451Z,96833.97
2023-05-19T12:29:10.149Z,96824.94
2023-05-19T12:31:36.977Z,96823.06
2023-05-19T12:34:03.707Z,96822.31
2023-05-19T12:36:32.132Z,96816.34
2023-05-19T12:38:58.828Z,96828.53
2023-05-19T12:41:25.634Z,96827.94
2023-05-19T12:43:52.460Z,96816.81
2023-05-19T12:46:19.206Z,96815.97
2023-05-19T12:48:46.489Z,96817.59
2023-05-19T12:51:17.367Z,96815.13
2023-05-19T12:53:44.585Z,96817.38
2023-05-19T12:56:15.242Z,96819.81
2023-05-19T12:58:42.217Z,96815.38
2023-05-19T13:01:15.855Z,96812.38
2023-05-19T13:03:42.809Z,96816.16
2023-05-19T13:06:09.695Z,96813.19
2023-05-19T13:08:37.020Z,96817.13
2023-05-19T13:11:03.760Z,96813.31
2023-05-19T13:13:30.397Z,96793.94
2023-05-19T13:15:57.059Z,96800.19
2023-05-19T13:18:23.784Z,96798.16
2023-05-19T13:20:50.531Z,96789.09
2023-05-19T13:23:17.287Z,96793.28
2023-05-19T13:25:44.010Z,96788.16
2023-05-19T13:28:10.779Z,96791.94
2023-05-19T13:30:38.762Z,96800.31
2023-05-19T13:33:05.669Z,96799.63
2023-05-19T13:35:32.382Z,96809.13
2023-05-19T13:37:59.152Z,96800.75
2023-05-19T13:40:25.835Z,96801.13
2023-05-19T13:42:52.538Z,96799.72
2023-05-19T13:45:19.196Z,96799.19
2023-05-19T13:47:45.922Z,96808.59
2023-05-19T13:50:12.823Z,96801.22
2023-05-19T13:52:39.633Z,96802.06
2023-05-19T13:55:06.927Z,96812.34
2023-05-19T13:57:33.579Z,96810.69
2023-05-19T14:00:02.436Z,96794.59
2023-05-19T14:02:29.822Z,96796.09
2023-05-19T14:04:57.070Z,96806.84
2023-05-19T14:07:23.781Z,96804.03
2023-05-19T14:09:50.443Z,96790.69
2023-05-19T14:12:17.258Z,96795.94
2023-05-19T14:14:43.967Z,96807.66
2023-05-19T14:17:10.662Z,96805.84
2023-05-19T14:19:37.416Z,96813.38
2023-05-19T14:22:04.342Z,96805.47
2023-05-19T14:24:31.044Z,96807.81
2023-05-19T14:26:57.721Z,96805.63
2023-05-19T14:29:24.413Z,96794.69
2023-05-19T14:31:51.205Z,96806.56
2023-05-19T14:34:17.906Z,96795.78
2023-05-19T14:36:44.575Z,96800.06
2023-05-19T14:39:11.265Z,96802.22
2023-05-19T14:41:37.966Z,96801.38
2023-05-19T14:44:04.947Z,96794.06
2023-05-19T14:46:31.628Z,96795.41
2023-05-19T14:48:58.343Z,96802.13
2023-05-19T14:51:24.988Z,96788.31
2023-05-19T14:53:51.657Z,96792.91
2023-05-19T14:56:18.431Z,96793.59
2023-05-19T14:58:45.131Z,96778.88
2023-05-19T15:01:11.893Z,96780.56
2023-05-19T15:03:38.686Z,96776.25
2023-05-19T15:06:09.158Z,96783.88
2023-05-19T15:08:35.851Z,96786.94
2023-05-19T15:11:02.519Z,96776.81
2023-05-19T15:13:29.246Z,96798.09
2023-05-19T15:16:08.281Z,96777.41
2023-05-19T15:18:42.083Z,96792.09
2023-05-19T15:21:08.805Z,96793.16
2023-05-19T15:23:35.502Z,96773.03
2023-05-19T15:26:02.143Z,96781.22
2023-05-19T15:28:28.843Z,96791.00
2023-05-19T15:30:55.579Z,96782.31
2023-05-19T15:33:22.366Z,96781.78
2023-05-19T15:35:49.053Z,96780.41
2023-05-19T15:38:15.742Z,96788.84
2023-05-19T15:40:42.449Z,96775.28
2023-05-19T15:43:10.272Z,96792.91
2023-05-19T15:45:36.983Z,96782.28
2023-05-19T15:48:03.810Z,96782.56
2023-05-19T15:50:30.559Z,96791.28
2023-05-19T15:52:57.277Z,96785.31
2023-05-19T15:55:23.982Z,96789.91
2023-05-19T15:57:50.662Z,96791.84
2023-05-19T16:00:17.304Z,96784.75
2023-05-19T16:02:44.044Z,96793.72
2023-05-19T16:05:10.746Z,96784.47
2023-05-19T16:07:37.500Z,96786.66
2023-05-19T16:10:04.564Z,96785.28
2023-05-19T16:12:31.210Z,96784.47
2023-05-19T16:14:57.883Z,96769.25
2023-05-19T16:17:24.563Z,96773.88
2023-05-19T16:19:51.245Z,96773.03
2023-05-19T16:22:19.025Z,96770.88
2023-05-19T16:24:45.670Z,96773.31
2023-05-19T16:27:12.295Z,96769.78
2023-05-19T16:29:38.987Z,96764.06
2023-05-19T16:32:05.821Z,96770.34
2023-05-19T16:34:32.604Z,96773.28
2023-05-19T16:36:59.304Z,96764.63
2023-05-19T16:39:26.014Z,96765.13
2023-05-19T16:41:52.734Z,96759.44
2023-05-19T16:44:19.400Z,96765.69
2023-05-19T16:46:46.124Z,96757.56
2023-05-19T16:49:12.748Z,96758.63
2023-05-19T16:51:39.461Z,96756.72
2023-05-19T16:54:06.137Z,96752.66
2023-05-19T16:56:32.779Z,96752.38
2023-05-19T16:58:59.423Z,96744.25
2023-05-19T17:01:26.198Z,96754.56
2023-05-19T17:03:53.048Z,96749.16
2023-05-19T17:06:19.883Z,96742.34
2023-05-19T17:08:46.633Z,96742.06
2023-05-19T17:11:13.352Z,96761.09
2023-05-19T17:13:40.047Z,96750.94
2023-05-19T17:16:06.740Z,96754.41
2023-05-19T17:18:33.428Z,96754.97
2023-05-19T17:21:02.240Z,96763.69
2023-05-19T17:23:29.281Z,96760.41
2023-05-19T17:25:55.930Z,96772.41
2023-05-19T17:28:22.633Z,96766.22
2023-05-19T17:30:49.401Z,96767.25
2023-05-19T17:33:16.173Z,96772.75
2023-05-19T17:35:42.934Z,96756.34
2023-05-19T17:38:09.615Z,96762.56
2023-05-19T17:40:36.471Z,96757.16
2023-05-19T17:43:03.331Z,96755.66
2023-05-19T17:45:29.982Z,96758.41
2023-05-19T17:47:57.438Z,96757.84
2023-05-19T17:50:25.204Z,96755.44
2023-05-19T17:52:52.183Z,96753.94
2023-05-19T17:55:19.524Z,96751.00
2023-05-19T17:57:46.447Z,96759.13
2023-05-19T18:00:13.529Z,96754.84
2023-05-19T18:02:40.707Z,96762.97
2023-05-19T18:05:07.965Z,96759.13
2023-05-19T18:07:34.682Z,96762.59
2023-05-19T18:10:01.338Z,96758.44
2023-05-19T18:12:28.007Z,96763.00
2023-05-19T18:14:55.009Z,96766.31
2023-05-19T18:17:21.748Z,96760.91
2023-05-19T18:19:48.389Z,96768.78
2023-05-19T18:22:15.101Z,96764.31
2023-05-19T18:24:41.807Z,96759.50
2023-05-19T18:27:08.478Z,96759.00
2023-05-19T18:29:35.209Z,96757.91
2023-05-19T18:32:01.959Z,96756.72
2023-05-19T18:34:29.318Z,96763.00
2023-05-19T18:36:56.041Z,96760.53
2023-05-19T18:39:22.785Z,96757.69
2023-05-19T18:41:49.408Z,96750.69
2023-05-19T18:44:16.107Z,96755.06
2023-05-19T18:46:42.759Z,96771.34
2023-05-19T18:49:11.605Z,96759.56
2023-05-19T18:51:38.529Z,96763.38
2023-05-19T18:54:05.216Z,96749.53
2023-05-19T18:56:32.585Z,96759.44
2023-05-19T18:58:59.287Z,96754.06
2023-05-19T19:01:25.996Z,96742.34
2023-05-19T19:03:52.678Z,96758.09
2023-05-19T19:06:19.369Z,96749.53
2023-05-19T19:08:46.260Z,96751.72
2023-05-19T19:11:12.953Z,96751.47
2023-05-19T19:13:39.587Z,96751.59
2023-05-19T19:16:06.663Z,96757.41
2023-05-19T19:18:33.332Z,96755.31
2023-05-19T19:20:59.984Z,96762.59
2023-05-19T19:23:26.692Z,96760.03
2023-05-19T19:25:55.232Z,96765.31
2023-05-19T19:28:22.256Z,96761.66
2023-05-19T19:30:49.167Z,96773.13
2023-05-19T19:33:15.886Z,96774.94
2023-05-19T19:35:45.192Z,96779.09
2023-05-19T19:38:11.910Z,96772.88
2023-05-19T19:40:39.617Z,96773.63
2023-05-19T19:43:06.304Z,96773.66
2023-05-19T19:45:32.960Z,96772.06
2023-05-19T19:47:59.649Z,96769.03
2023-05-19T19:50:26.330Z,96771.22
2023-05-19T19:52:53.020Z,96772.59
2023-05-19T19:55:19.691Z,96772.38
2023-05-19T19:57:46.375Z,96764.81
2023-05-19T20:00:13.503Z,96762.50
2023-05-19T20:02:51.625Z,96771.88
2023-05-19T20:05:22.384Z,96766.53
2023-05-19T20:07:49.083Z,96766.84
2023-05-19T20:10:15.747Z,96779.44
2023-05-19T20:12:42.425Z,96768.69
2023-05-19T20:15:09.576Z,96768.91
2023-05-19T20:17:36.334Z,96768.50
2023-05-19T20:20:03.064Z,96765.84
2023-05-19T20:22:29.790Z,96771.59
2023-05-19T20:24:56.527Z,96775.44
2023-05-19T20:27:23.213Z,96765.25
2023-05-19T20:29:49.996Z,96780.06
2023-05-19T20:32:16.630Z,96766.25
2023-05-19T20:34:43.444Z,96775.38
2023-05-19T20:37:10.544Z,96771.97
2023-05-19T20:39:37.232Z,96778.22
2023-05-19T20:42:03.991Z,96774.19
2023-05-19T20:44:30.779Z,96771.84
2023-05-19T20:46:57.554Z,96776.91
2023-05-19T20:49:24.266Z,96772.72
2023-05-19T20:51:50.981Z,96778.41
2023-05-19T20:54:17.642Z,96773.66
2023-05-19T20:56:44.352Z,96771.16
2023-05-19T20:59:11.042Z,96773.19
2023-05-19T21:01:38.010Z,96768.91
2023-05-19T21:04:04.783Z,96778.47
2023-05-19T21:06:31.461Z,96764.75
2023-05-19T21:08:58.130Z,96779.56
2023-05-19T21:11:24.853Z,96769.63
2023-05-19T21:13:51.509Z,96766.13
2023-05-19T21:16:18.203Z,96775.41
2023-05-19T21:18:44.951Z,96778.53
2023-05-19T21:21:11.700Z,96772.06
2023-05-19T21:23:38.410Z,96766.16
2023-05-19T21:26:05.251Z,96765.91
2023-05-19T21:28:31.965Z,96758.72
2023-05-19T21:30:58.679Z,96753.44
2023-05-19T21:33:25.372Z,96755.66
2023-05-19T21:35:52.180Z,96759.78
2023-05-19T21:38:23.747Z,96755.81
2023-05-19T21:40:51.099Z,96750.44
2023-05-19T21:43:17.781Z,96756.47
2023-05-19T21:45:44.450Z,96752.94
2023-05-19T21:48:11.106Z,96751.31
2023-05-19T21:50:38.118Z,96757.72
2023-05-19T21:53:05.171Z,96758.22
2023-05-19T21:55:31.869Z,96753.50
2023-05-19T21:58:00.319Z,96750.31
2023-05-19T22:00:29.050Z,96742.38
2023-05-19T22:02:55.813Z,96740.94
2023-05-19T22:05:22.597Z,96732.09
2023-05-19T22:07:49.344Z,96740.28
2023-05-19T22:10:16.122Z,96738.44
2023-05-19T22:12:42.828Z,96737.13
2023-05-19T22:15:10.223Z,96740.38
2023-05-19T22:17:37.024Z,96743.38
2023-05-19T22:20:04.040Z,96747.38
2023-05-19T22:22:30.723Z,96753.75
2023-05-19T22:24:57.405Z,96739.97
2023-05-19T22:27:24.053Z,96743.81
2023-05-19T22:29:50.756Z,96747.91
2023-05-19T22:32:17.488Z,96734.16
2023-05-19T22:34:44.414Z,96742.28
2023-05-19T22:37:11.268Z,96742.38
2023-05-19T22:39:38.807Z,96745.97
2023-05-19T22:42:05.737Z,96739.34
2023-05-19T22:44:32.453Z,96734.34
2023-05-19T22:46:59.138Z,96742.72
2023-05-19T22:49:25.781Z,96737.53
2023-05-19T22:51:52.484Z,96738.94
2023-05-19T22:54:19.209Z,96745.38
2023-05-19T22:56:46.536Z,96747.31
2023-05-19T22:59:13.246Z,96738.41
2023-05-19T23:01:40.021Z,96731.28
2023-05-19T23:04:06.837Z,96729.41
2023-05-19T23:06:33.563Z,96730.38
2023-05-19T23:09:03.487Z,96725.16
2023-05-19T23:11:30.175Z,96731.34
2023-05-19T23:13:56.909Z,96731.63
2023-05-19T23:16:23.620Z,96717.13
2023-05-19T23:18:50.326Z,96737.19
2023-05-19T23:21:17.113Z,96729.19
2023-05-19T23:23:43.812Z,96732.13
2023-05-19T23:26:10.517Z,96730.81
2023-05-19T23:28:37.181Z,96730.13
2023-05-19T23:31:03.857Z,96728.72
2023-05-19T23:33:30.566Z,96726.09
2023-05-19T23:35:57.866Z,96731.81
2023-05-19T23:38:24.533Z,96722.22
2023-05-19T23:40:51.173Z,96720.84
2023-05-19T23:43:17.910Z,96722.31
2023-05-19T23:45:44.683Z,96721.59
2023-05-19T23:48:11.396Z,96729.09
2023-05-19T23:50:38.063Z,96719.19
2023-05-19T23:53:04.700Z,96725.13
2023-05-19T23:55:31.592Z,96712.44
2023-05-19T23:57:58.451Z,96720.13
